Central Cty, Kentucky
Current Conditions -  °F | °C
As of 5:55 PM on Friday 19 Dec 2014 (Local Time) from K2I0 Reporting Station
Clear Clear  
Wind Chill: 31°   Ceiling: Unl
Heat Index: 35°   Visibility: 10mi
Dew Point: 27°   Wind: 5mph
Humidity: 74%   Direction: 10°N
Pressure: 30.29"   Gusts: NA
Location:  37.3137°N, 87.1024°W
Report Text: K2I0 192355Z AUTO 01004KT 10SM CLR 02/M03 A3029 RMK AO2 T00151027 10049 20002
Loading
Personal Weather Stations






























Interactive Weather Map New forecast layout! Learn more

10-Day Weather Forecast

Advertisements
Track Severe Weather on mobile